createdAt,value
2023-01-13T00:01:00.176Z,65.64
2023-01-13T00:03:28.001Z,64.15
2023-01-13T00:05:55.708Z,58.58
2023-01-13T00:08:23.376Z,56.40
2023-01-13T00:10:51.037Z,56.82
2023-01-13T00:13:26.665Z,57.69
2023-01-13T00:15:58.102Z,58.41
2023-01-13T00:18:26.028Z,59.58
2023-01-13T00:21:20.139Z,60.22
2023-01-13T00:23:47.880Z,60.94
2023-01-13T00:26:19.794Z,60.13
2023-01-13T00:28:47.648Z,62.07
2023-01-13T00:31:16.443Z,67.15
2023-01-13T00:33:44.173Z,66.91
2023-01-13T00:36:12.728Z,63.99
2023-01-13T00:38:40.663Z,61.21
2023-01-13T00:41:12.248Z,57.84
2023-01-13T00:43:40.081Z,56.09
2023-01-13T00:46:08.506Z,56.56
2023-01-13T00:48:36.589Z,57.63
2023-01-13T00:51:14.970Z,59.37
2023-01-13T00:53:43.917Z,59.37
2023-01-13T00:56:11.571Z,59.98
2023-01-13T00:58:39.168Z,64.41
2023-01-13T01:01:07.964Z,66.11
2023-01-13T01:03:35.955Z,61.37
2023-01-13T01:06:05.367Z,60.99
2023-01-13T01:08:33.627Z,60.24
2023-01-13T01:11:02.454Z,58.26
2023-01-13T01:13:30.214Z,56.46
2023-01-13T01:15:58.097Z,56.57
2023-01-13T01:18:25.931Z,56.73
2023-01-13T01:20:53.575Z,58.71
2023-01-13T01:23:21.201Z,59.05
2023-01-13T01:25:48.824Z,59.50
2023-01-13T01:28:19.350Z,60.53
2023-01-13T01:30:47.041Z,60.32
2023-01-13T01:33:14.809Z,61.06
2023-01-13T01:35:43.051Z,64.10
2023-01-13T01:38:10.972Z,66.15
2023-01-13T01:40:38.675Z,66.19
2023-01-13T01:43:51.465Z,63.12
2023-01-13T01:46:19.207Z,60.94
2023-01-13T01:48:46.861Z,57.85
2023-01-13T01:51:14.587Z,57.56
2023-01-13T01:53:42.199Z,58.11
2023-01-13T01:56:09.807Z,59.03
2023-01-13T01:58:39.465Z,58.85
2023-01-13T02:01:07.245Z,59.20
2023-01-13T02:03:36.232Z,63.66
2023-01-13T02:06:04.160Z,63.94
2023-01-13T02:08:31.823Z,62.35
2023-01-13T02:10:59.456Z,58.80
2023-01-13T02:13:27.171Z,56.53
2023-01-13T02:16:15.123Z,57.26
2023-01-13T02:19:01.048Z,59.30
2023-01-13T02:21:31.869Z,59.68
2023-01-13T02:24:25.288Z,61.47
2023-01-13T02:27:12.331Z,64.40
2023-01-13T02:33:13.751Z,58.10
2023-01-13T02:35:51.489Z,55.42
2023-01-13T02:38:39.387Z,56.24
2023-01-13T02:41:37.585Z,56.25
2023-01-13T02:44:08.102Z,57.63
2023-01-13T02:46:41.972Z,60.27
2023-01-13T02:49:10.335Z,62.19
2023-01-13T02:51:37.983Z,64.72
2023-01-13T02:54:05.641Z,63.83
2023-01-13T02:56:35.456Z,59.19
2023-01-13T02:59:03.212Z,57.16
2023-01-13T03:01:31.053Z,57.69
2023-01-13T03:03:58.796Z,59.43
2023-01-13T03:06:29.777Z,60.69
2023-01-13T03:09:05.473Z,60.66
2023-01-13T03:11:34.890Z,62.22
2023-01-13T03:14:09.408Z,66.93
2023-01-13T03:16:38.423Z,63.30
2023-01-13T03:19:06.184Z,61.57
2023-01-13T03:21:52.668Z,58.66
2023-01-13T03:24:21.452Z,54.01
2023-01-13T03:26:50.424Z,54.77
2023-01-13T03:29:19.534Z,56.17
2023-01-13T03:32:05.520Z,57.47
2023-01-13T03:34:34.611Z,58.10
2023-01-13T03:37:03.495Z,58.40
2023-01-13T03:39:32.278Z,59.41
2023-01-13T03:42:01.873Z,64.12
2023-01-13T03:44:34.121Z,66.46
2023-01-13T03:47:13.011Z,62.07
2023-01-13T03:49:40.885Z,57.58
2023-01-13T03:52:09.783Z,53.48
2023-01-13T03:54:43.340Z,54.96
2023-01-13T03:57:12.036Z,55.67
2023-01-13T03:59:41.670Z,56.60
2023-01-13T04:02:11.222Z,59.45
2023-01-13T04:04:44.058Z,59.32
2023-01-13T04:07:24.756Z,61.44
2023-01-13T04:10:02.479Z,61.46
2023-01-13T04:12:52.511Z,63.74
2023-01-13T04:15:24.520Z,63.39
2023-01-13T04:17:52.963Z,62.97
2023-01-13T04:20:21.069Z,56.81
2023-01-13T04:22:48.704Z,55.29
2023-01-13T04:25:16.643Z,57.04
2023-01-13T04:27:44.839Z,58.92
2023-01-13T04:30:12.621Z,59.99
2023-01-13T04:32:40.551Z,58.42
2023-01-13T04:35:08.711Z,58.61
2023-01-13T04:37:36.437Z,59.34
2023-01-13T04:40:04.488Z,63.48
2023-01-13T04:42:32.122Z,65.67
2023-01-13T04:44:59.915Z,64.47
2023-01-13T04:47:27.609Z,61.54
2023-01-13T04:49:55.210Z,57.15
2023-01-13T04:52:22.942Z,54.70
2023-01-13T04:54:50.596Z,55.89
2023-01-13T04:57:18.327Z,55.48
2023-01-13T04:59:45.994Z,56.74
2023-01-13T05:02:19.953Z,57.79
2023-01-13T05:04:48.106Z,60.18
2023-01-13T05:07:16.412Z,60.74
2023-01-13T05:09:44.072Z,60.45
2023-01-13T05:12:31.204Z,61.23
2023-01-13T05:15:18.123Z,65.17
2023-01-13T05:17:46.185Z,63.71
2023-01-13T05:20:14.393Z,61.81
2023-01-13T05:23:01.224Z,57.49
2023-01-13T05:25:29.096Z,56.41
2023-01-13T05:27:57.943Z,57.59
2023-01-13T05:30:26.967Z,57.35
2023-01-13T05:32:54.636Z,58.45
2023-01-13T05:35:22.587Z,59.56
2023-01-13T05:37:50.584Z,61.77
2023-01-13T05:40:37.189Z,64.28
2023-01-13T05:43:21.360Z,62.42
2023-01-13T05:45:53.835Z,61.85
2023-01-13T05:48:22.005Z,60.98
2023-01-13T05:50:49.763Z,58.77
2023-01-13T05:53:17.879Z,56.24
2023-01-13T05:55:45.806Z,57.41
2023-01-13T05:58:14.540Z,58.16
2023-01-13T06:00:42.406Z,58.75
2023-01-13T06:03:10.670Z,59.73
2023-01-13T06:05:38.650Z,60.18
2023-01-13T06:08:06.946Z,59.63
2023-01-13T06:10:37.136Z,60.53
2023-01-13T06:13:04.964Z,62.04
2023-01-13T06:15:32.842Z,64.43
2023-01-13T06:18:02.227Z,63.94
2023-01-13T06:20:29.909Z,62.29
2023-01-13T06:22:57.725Z,62.95
2023-01-13T06:25:28.516Z,59.41
2023-01-13T06:27:59.127Z,56.61
2023-01-13T06:30:27.946Z,56.15
2023-01-13T06:32:55.917Z,56.80
2023-01-13T06:35:25.228Z,57.40
2023-01-13T06:37:53.576Z,59.74
2023-01-13T06:40:21.420Z,59.85
2023-01-13T06:43:07.727Z,59.79
2023-01-13T06:45:35.534Z,63.94
2023-01-13T06:48:03.234Z,66.10
2023-01-13T06:50:30.978Z,63.26
2023-01-13T06:52:58.608Z,61.84
2023-01-13T06:55:26.237Z,58.06
2023-01-13T06:57:54.996Z,53.80
2023-01-13T07:00:23.198Z,53.25
2023-01-13T07:02:50.950Z,54.62
2023-01-13T07:05:19.504Z,56.80
2023-01-13T07:07:47.190Z,56.05
2023-01-13T07:10:22.369Z,57.44
2023-01-13T07:13:08.906Z,57.80
2023-01-13T07:15:36.580Z,59.01
2023-01-13T07:18:04.251Z,58.49
2023-01-13T07:20:31.969Z,59.34
2023-01-13T07:22:59.678Z,60.43
2023-01-13T07:25:27.336Z,65.53
2023-01-13T07:27:57.167Z,65.79
2023-01-13T07:30:24.840Z,61.86
2023-01-13T07:32:52.582Z,60.18
2023-01-13T07:35:23.109Z,57.20
2023-01-13T07:37:50.804Z,54.84
2023-01-13T07:40:18.638Z,54.76
2023-01-13T07:43:05.299Z,56.15
2023-01-13T07:45:33.082Z,57.44
2023-01-13T07:48:00.752Z,58.10
2023-01-13T07:50:28.668Z,57.31
2023-01-13T07:52:59.235Z,59.85
2023-01-13T07:55:26.969Z,60.30
2023-01-13T07:57:54.710Z,59.33
2023-01-13T08:00:22.756Z,62.03
2023-01-13T08:02:50.444Z,64.24
2023-01-13T08:05:18.211Z,62.59
2023-01-13T08:07:45.824Z,58.47
2023-01-13T08:10:13.725Z,56.51
2023-01-13T08:13:00.533Z,56.24
2023-01-13T08:15:29.780Z,56.95
2023-01-13T08:17:58.294Z,58.12
2023-01-13T08:20:25.952Z,58.08
2023-01-13T08:22:57.944Z,59.62
2023-01-13T08:25:26.414Z,59.16
2023-01-13T08:27:54.107Z,58.88
2023-01-13T08:30:21.893Z,59.14
2023-01-13T08:32:50.073Z,61.42
2023-01-13T08:35:17.922Z,60.66
2023-01-13T08:37:45.781Z,63.12
2023-01-13T08:40:13.805Z,64.04
2023-01-13T08:42:41.442Z,66.66
2023-01-13T08:45:09.623Z,64.14
2023-01-13T08:47:37.279Z,57.54
2023-01-13T08:50:05.517Z,54.19
2023-01-13T08:52:33.316Z,53.89
2023-01-13T08:55:00.923Z,54.87
2023-01-13T08:57:28.778Z,56.02
2023-01-13T08:59:56.575Z,56.95
2023-01-13T09:02:24.422Z,58.26
2023-01-13T09:04:52.499Z,58.68
2023-01-13T09:07:20.271Z,58.89
2023-01-13T09:09:47.929Z,59.33
2023-01-13T09:12:34.724Z,60.38
2023-01-13T09:15:02.439Z,60.93
2023-01-13T09:17:30.277Z,60.60
2023-01-13T09:19:57.980Z,60.91
2023-01-13T09:22:27.203Z,61.16
2023-01-13T09:24:55.244Z,61.31
2023-01-13T09:27:23.045Z,64.28
2023-01-13T09:29:50.750Z,65.29
2023-01-13T09:32:18.446Z,59.08
2023-01-13T09:35:01.473Z,56.01
2023-01-13T09:37:30.004Z,56.60
2023-01-13T09:39:57.696Z,56.12
2023-01-13T09:42:46.410Z,56.42
2023-01-13T09:45:19.606Z,58.10
2023-01-13T09:47:47.468Z,58.90
2023-01-13T09:50:15.117Z,58.50
2023-01-13T09:52:43.186Z,59.42
2023-01-13T09:55:12.216Z,58.76
2023-01-13T09:57:40.267Z,58.94
2023-01-13T10:00:11.525Z,58.84
2023-01-13T10:02:42.685Z,60.17
2023-01-13T10:05:13.205Z,59.57
2023-01-13T10:07:42.815Z,60.36
2023-01-13T10:10:15.723Z,60.03
2023-01-13T10:13:02.671Z,60.20
2023-01-13T10:15:30.393Z,60.02
2023-01-13T10:18:15.736Z,60.07
2023-01-13T10:20:43.387Z,60.32
2023-01-13T10:23:34.261Z,60.70
2023-01-13T10:26:05.058Z,60.61
2023-01-13T10:28:32.792Z,60.25
2023-01-13T10:31:00.432Z,60.43
2023-01-13T10:33:28.576Z,60.21
2023-01-13T10:36:15.393Z,60.29
2023-01-13T10:38:43.087Z,60.45
2023-01-13T10:41:13.610Z,60.32
2023-01-13T10:43:44.991Z,60.56
2023-01-13T10:46:16.008Z,60.72
2023-01-13T10:48:44.609Z,60.66
2023-01-13T10:51:12.349Z,60.54
2023-01-13T10:53:49.429Z,61.00
2023-01-13T10:56:18.187Z,61.29
2023-01-13T10:58:46.005Z,61.00
2023-01-13T11:01:20.841Z,61.00
2023-01-13T11:03:48.848Z,61.56
2023-01-13T11:06:35.455Z,61.54
2023-01-13T11:09:03.250Z,61.54
2023-01-13T11:11:38.330Z,61.51
2023-01-13T11:14:27.109Z,61.68
2023-01-13T11:16:55.407Z,61.57
2023-01-13T11:19:23.075Z,61.15
2023-01-13T11:22:11.114Z,61.10
2023-01-13T11:24:40.319Z,60.82
2023-01-13T11:27:17.322Z,60.81
2023-01-13T11:30:09.574Z,60.83
2023-01-13T11:32:39.754Z,60.30
2023-01-13T11:35:15.135Z,59.68
2023-01-13T11:37:43.282Z,59.48
2023-01-13T11:40:28.360Z,59.16
2023-01-13T11:42:59.237Z,58.93
2023-01-13T11:45:26.820Z,58.98
2023-01-13T11:47:57.565Z,59.01
2023-01-13T11:50:31.332Z,59.02
2023-01-13T11:53:18.099Z,59.07
2023-01-13T11:56:26.912Z,59.00
2023-01-13T11:59:03.891Z,59.11
2023-01-13T12:01:35.460Z,58.94
2023-01-13T12:04:22.181Z,58.22
2023-01-13T12:06:57.265Z,58.11
2023-01-13T12:09:44.634Z,58.27
2023-01-13T12:12:22.963Z,58.53
2023-01-13T12:15:03.013Z,58.75
2023-01-13T12:18:00.021Z,58.96
2023-01-13T12:20:37.069Z,59.10
2023-01-13T12:23:06.592Z,59.12
2023-01-13T12:25:37.463Z,58.85
2023-01-13T12:28:14.718Z,58.96
2023-01-13T12:30:44.654Z,58.50
2023-01-13T12:33:18.930Z,58.53
2023-01-13T12:35:50.092Z,57.97
2023-01-13T12:38:21.223Z,57.00
2023-01-13T12:41:09.524Z,56.87
2023-01-13T12:43:55.872Z,56.86
2023-01-13T12:46:23.663Z,56.98
2023-01-13T12:48:57.308Z,57.04
2023-01-13T12:51:25.276Z,57.46
2023-01-13T12:53:53.193Z,57.71
2023-01-13T12:56:27.062Z,57.84
2023-01-13T12:59:13.555Z,57.74
2023-01-13T13:01:41.363Z,57.76
2023-01-13T13:04:22.157Z,57.85
2023-01-13T13:06:54.579Z,57.79
2023-01-13T13:09:29.354Z,58.21
2023-01-13T13:12:02.917Z,58.44
2023-01-13T13:14:43.619Z,58.86
2023-01-13T13:17:20.437Z,59.03
2023-01-13T13:19:48.654Z,59.32
2023-01-13T13:22:19.078Z,59.84
2023-01-13T13:24:49.763Z,60.29
2023-01-13T13:27:22.999Z,60.44
2023-01-13T13:30:09.533Z,60.66
2023-01-13T13:32:55.996Z,61.50
2023-01-13T13:35:40.091Z,62.88
2023-01-13T13:38:45.736Z,62.90
2023-01-13T13:41:33.131Z,59.96
2023-01-13T13:44:20.774Z,59.03
2023-01-13T13:46:49.112Z,60.10
2023-01-13T13:49:21.359Z,61.84
2023-01-13T13:51:55.256Z,65.38
2023-01-13T13:54:23.031Z,67.09
2023-01-13T13:56:50.719Z,60.16
2023-01-13T13:59:19.579Z,58.68
2023-01-13T14:01:50.272Z,60.70
2023-01-13T14:04:19.907Z,61.40
2023-01-13T14:06:51.937Z,63.80
2023-01-13T14:09:20.075Z,63.60
2023-01-13T14:11:56.438Z,61.05
2023-01-13T14:14:25.015Z,58.32
2023-01-13T14:16:54.937Z,58.68
2023-01-13T14:19:25.566Z,60.32
2023-01-13T14:21:53.320Z,63.68
2023-01-13T14:24:22.564Z,66.01
2023-01-13T14:26:52.051Z,64.79
2023-01-13T14:29:21.002Z,58.73
2023-01-13T14:31:49.413Z,58.08
2023-01-13T14:34:31.000Z,58.04
2023-01-13T14:36:59.998Z,59.61
2023-01-13T14:39:38.975Z,62.79
2023-01-13T14:42:13.397Z,67.02
2023-01-13T14:44:43.972Z,66.09
2023-01-13T14:47:18.104Z,63.95
2023-01-13T14:49:54.928Z,62.26
2023-01-13T14:52:23.498Z,58.55
2023-01-13T14:54:52.841Z,56.45
2023-01-13T14:57:25.471Z,57.58
2023-01-13T15:00:00.854Z,59.23
2023-01-13T15:02:34.041Z,61.22
2023-01-13T15:05:18.796Z,65.84
2023-01-13T15:07:53.616Z,66.44
2023-01-13T15:10:42.033Z,62.69
2023-01-13T15:13:21.737Z,61.43
2023-01-13T15:15:50.979Z,60.76
2023-01-13T15:18:18.644Z,56.60
2023-01-13T15:20:46.291Z,55.44
2023-01-13T15:23:14.225Z,56.67
2023-01-13T15:25:43.065Z,57.21
2023-01-13T15:28:15.111Z,59.30
2023-01-13T15:30:42.763Z,61.09
2023-01-13T15:33:12.493Z,64.58
2023-01-13T15:35:41.703Z,66.07
2023-01-13T15:38:10.361Z,63.83
2023-01-13T15:40:38.151Z,59.86
2023-01-13T15:43:24.647Z,58.35
2023-01-13T15:46:11.072Z,59.35
2023-01-13T15:48:38.902Z,59.90
2023-01-13T15:51:07.284Z,61.91
2023-01-13T15:53:36.909Z,65.83
2023-01-13T15:56:05.240Z,64.81
2023-01-13T15:58:32.920Z,61.38
2023-01-13T16:01:00.684Z,58.05
2023-01-13T16:03:28.448Z,55.16
2023-01-13T16:05:56.050Z,54.80
2023-01-13T16:08:23.790Z,56.76
2023-01-13T16:10:51.532Z,56.35
2023-01-13T16:13:19.198Z,56.86
2023-01-13T16:15:49.816Z,58.21
2023-01-13T16:18:18.726Z,59.37
2023-01-13T16:20:46.772Z,59.23
2023-01-13T16:23:14.507Z,59.67
2023-01-13T16:25:44.719Z,60.33
2023-01-13T16:28:17.259Z,61.48
2023-01-13T16:30:44.995Z,66.28
2023-01-13T16:33:12.631Z,68.44
2023-01-13T16:36:09.263Z,65.94
2023-01-13T16:38:28.298Z,61.42
2023-01-13T16:40:56.896Z,60.01
2023-01-13T16:43:24.537Z,57.94
2023-01-13T16:45:52.186Z,55.35
2023-01-13T16:48:20.213Z,55.11
2023-01-13T16:50:47.878Z,55.53
2023-01-13T16:53:15.648Z,55.56
2023-01-13T16:55:43.497Z,57.09
2023-01-13T16:58:15.807Z,57.10
2023-01-13T17:00:46.737Z,57.60
2023-01-13T17:03:17.640Z,58.06
2023-01-13T17:05:46.983Z,60.25
2023-01-13T17:08:18.990Z,60.45
2023-01-13T17:10:47.070Z,61.32
2023-01-13T17:13:16.769Z,64.44
2023-01-13T17:15:45.344Z,65.79
2023-01-13T17:18:13.604Z,63.95
2023-01-13T17:20:41.620Z,61.82
2023-01-13T17:23:09.324Z,60.51
2023-01-13T17:25:36.972Z,57.69
2023-01-13T17:28:04.691Z,55.68
2023-01-13T17:30:32.788Z,55.69
2023-01-13T17:33:00.745Z,59.95
2023-01-13T17:35:28.516Z,60.37
2023-01-13T17:37:56.979Z,59.53
2023-01-13T17:40:24.634Z,60.55
2023-01-13T17:42:52.347Z,59.92
2023-01-13T17:45:20.048Z,61.34
2023-01-13T17:47:47.789Z,65.29
2023-01-13T17:50:16.615Z,68.91
2023-01-13T17:52:45.974Z,62.58
2023-01-13T17:55:13.569Z,57.24
2023-01-13T17:57:41.158Z,54.11
2023-01-13T18:00:09.090Z,53.94
2023-01-13T18:02:42.771Z,53.81
2023-01-13T18:05:10.540Z,54.00
2023-01-13T18:07:38.269Z,54.68
2023-01-13T18:10:06.258Z,55.36
2023-01-13T18:12:34.868Z,55.90
2023-01-13T18:15:02.612Z,56.25
2023-01-13T18:17:30.248Z,56.42
2023-01-13T18:20:16.437Z,56.99
2023-01-13T18:23:02.630Z,57.45
2023-01-13T18:25:48.949Z,58.91
2023-01-13T18:28:16.954Z,59.03
2023-01-13T18:30:44.637Z,58.98
2023-01-13T18:33:12.303Z,59.78
2023-01-13T18:35:39.925Z,60.44
2023-01-13T18:38:08.418Z,60.49
2023-01-13T18:40:36.106Z,61.96
2023-01-13T18:43:03.723Z,65.88
2023-01-13T18:45:31.818Z,67.11
2023-01-13T18:48:00.571Z,64.40
2023-01-13T18:50:28.552Z,60.65
2023-01-13T18:52:56.329Z,56.56
2023-01-13T18:55:24.765Z,55.18
2023-01-13T18:57:53.403Z,54.52
2023-01-13T19:00:21.528Z,54.55
2023-01-13T19:05:34.531Z,55.30
2023-01-13T19:08:02.942Z,56.20
2023-01-13T19:10:32.336Z,59.29
2023-01-13T19:13:01.383Z,58.77
2023-01-13T19:15:29.334Z,60.19
2023-01-13T19:17:57.091Z,61.34
2023-01-13T19:20:24.761Z,61.13
2023-01-13T19:22:54.438Z,60.89
2023-01-13T19:25:22.225Z,60.31
2023-01-13T19:27:49.914Z,60.29
2023-01-13T19:30:17.788Z,59.89
2023-01-13T19:32:45.527Z,59.68
2023-01-13T19:35:17.344Z,59.74
2023-01-13T19:37:45.566Z,59.62
2023-01-13T19:40:13.859Z,59.82
2023-01-13T19:43:03.152Z,59.69
2023-01-13T19:45:32.161Z,59.73
2023-01-13T19:48:05.091Z,59.82
2023-01-13T19:50:37.372Z,60.07
2023-01-13T19:53:05.387Z,60.07
2023-01-13T19:55:33.110Z,60.18
2023-01-13T19:58:00.868Z,60.34
2023-01-13T20:00:29.155Z,60.48
2023-01-13T20:03:03.005Z,60.65
2023-01-13T20:05:30.813Z,60.83
2023-01-13T20:07:58.560Z,60.95
2023-01-13T20:10:26.243Z,61.06
2023-01-13T20:12:53.893Z,61.13
2023-01-13T20:15:21.594Z,61.31
2023-01-13T20:17:49.317Z,61.42
2023-01-13T20:20:18.525Z,61.53
2023-01-13T20:22:46.279Z,61.73
2023-01-13T20:25:16.989Z,62.06
2023-01-13T20:27:45.394Z,62.13
2023-01-13T20:30:14.404Z,62.22
2023-01-13T20:32:43.452Z,62.32
2023-01-13T20:35:11.354Z,63.71
2023-01-13T20:37:39.426Z,69.35
2023-01-13T20:40:07.599Z,70.03
2023-01-13T20:42:47.280Z,64.63
2023-01-13T20:45:17.741Z,58.35
2023-01-13T20:47:45.590Z,55.30
2023-01-13T20:50:13.351Z,55.39
2023-01-13T20:52:41.078Z,57.58
2023-01-13T20:55:09.098Z,57.70
2023-01-13T20:57:36.783Z,58.12
2023-01-13T21:00:05.856Z,59.54
2023-01-13T21:02:33.611Z,60.45
2023-01-13T21:05:01.293Z,61.30
2023-01-13T21:07:28.992Z,61.17
2023-01-13T21:09:57.808Z,60.47
2023-01-13T21:12:44.312Z,61.11
2023-01-13T21:15:18.490Z,62.53
2023-01-13T21:18:05.079Z,64.58
2023-01-13T21:20:33.546Z,58.70
2023-01-13T21:23:01.723Z,57.05
2023-01-13T21:25:29.564Z,57.51
2023-01-13T21:28:05.702Z,57.90
2023-01-13T21:30:33.509Z,57.54
2023-01-13T21:33:02.489Z,59.79
2023-01-13T21:35:30.134Z,60.59
2023-01-13T21:37:57.815Z,59.81
2023-01-13T21:40:25.583Z,59.47
2023-01-13T21:43:12.405Z,61.03
2023-01-13T21:45:58.898Z,61.29
2023-01-13T21:48:26.895Z,60.16
2023-01-13T21:50:54.683Z,60.77
2023-01-13T21:53:22.309Z,60.76
2023-01-13T21:55:50.713Z,60.31
2023-01-13T21:58:18.414Z,60.82
2023-01-13T22:00:46.382Z,60.60
2023-01-13T22:03:18.721Z,60.62
2023-01-13T22:05:47.148Z,62.50
2023-01-13T22:08:14.863Z,65.34
2023-01-13T22:10:57.727Z,67.94
2023-01-13T22:13:44.964Z,64.88
2023-01-13T22:16:12.751Z,60.81
2023-01-13T22:18:40.440Z,53.89
2023-01-13T22:21:08.296Z,51.84
2023-01-13T22:23:36.204Z,52.31
2023-01-13T22:26:04.352Z,52.80
2023-01-13T22:28:40.024Z,54.18
2023-01-13T22:31:12.284Z,53.63
2023-01-13T22:33:40.620Z,54.95
2023-01-13T22:36:08.942Z,55.72
2023-01-13T22:38:36.737Z,55.89
2023-01-13T22:41:06.220Z,58.04
2023-01-13T22:43:34.293Z,58.13
2023-01-13T22:46:02.945Z,57.99
2023-01-13T22:48:30.673Z,58.49
2023-01-13T22:51:04.301Z,58.92
2023-01-13T22:53:32.287Z,59.00
2023-01-13T22:56:00.260Z,59.32
2023-01-13T22:58:28.317Z,59.75
2023-01-13T23:00:56.407Z,60.32
2023-01-13T23:03:26.425Z,60.39
2023-01-13T23:05:57.808Z,61.59
2023-01-13T23:08:25.710Z,61.66
2023-01-13T23:10:59.704Z,61.28
2023-01-13T23:13:27.698Z,61.51
2023-01-13T23:15:55.399Z,62.54
2023-01-13T23:18:24.627Z,66.15
2023-01-13T23:20:52.282Z,65.57
2023-01-13T23:23:20.325Z,62.78
2023-01-13T23:25:53.451Z,60.24
2023-01-13T23:28:22.260Z,56.60
2023-01-13T23:30:51.620Z,54.91
2023-01-13T23:33:19.764Z,53.99
2023-01-13T23:35:57.653Z,54.26
2023-01-13T23:38:25.511Z,55.65
2023-01-13T23:40:53.183Z,55.02
2023-01-13T23:43:21.020Z,55.76
2023-01-13T23:45:48.860Z,56.66
2023-01-13T23:48:18.552Z,57.06
2023-01-13T23:50:56.044Z,57.78
2023-01-13T23:53:24.132Z,57.67
2023-01-13T23:55:56.580Z,59.05
2023-01-13T23:58:24.203Z,59.16
